KOGD/OGD METAR and TAF weather

Enter ICAO airport designator
Station Type Date Time Source
KOGD METAR 2019/04/18 10:53 UTC NOAA

KOGD 181053Z AUTO 18005KT 10SM CLR 03/01 A3030 RMK AO2 SLP249 T00330006


Station Type Date Time Source
KOGD Decoded METAR 2019/04/18 10:53 UTC NOAA

OGDEN-HINCKLEY AIRPORT, UT, United States (KOGD) 41-12N 112-01W 1353M
Apr 18, 2019 - 06:53 AM EDT / 2019.04.18 1053 UTC
Wind: from the S (180 degrees) at 6 MPH (5 KT):0
Visibility: 10 mile(s):0
Sky conditions: clear
Temperature: 37.9 F (3.3 C)
Dew Point: 33.1 F (0.6 C)
Relative Humidity: 82%
Pressure (altimeter): 30.3 in. Hg (1026 hPa)
ob: KOGD 181053Z AUTO 18005KT 10SM CLR 03/01 A3030 RMK AO2 SLP249 T00330006
cycle: 11

Station Type Date Time Source
KOGD TAF 2019/04/18 06:58 UTC NOAA

TAF KOGD 180555Z 1806/1906 16005KT P6SM FEW060
FM181900 30005KT P6SM SKC
FM190300 16005KT P6SM SKC

Example: see airport list